RJOZ(METAR)
05/22 00:00
METAR RJOZ 211500Z 36006KT 9999 FEW030 16/13 Q1008 RMK 1CU030 A2977=
戻る
トップページへ戻る
IMOC Co,.Ltd.